sensor_id;sensor_type;location;lat;lon;timestamp;P1;durP1;ratioP1;P2;durP2;ratioP2
20846;SDS011;10584;50.854;12.902;2022-09-09T00:04:29;7.10;;;1.77;;
20846;SDS011;10584;50.854;12.902;2022-09-09T00:09:35;4.37;;;2.10;;
20846;SDS011;10584;50.854;12.902;2022-09-09T00:14:51;3.33;;;1.83;;
20846;SDS011;10584;50.854;12.902;2022-09-09T00:30:39;2.17;;;1.50;;
20846;SDS011;10584;50.854;12.902;2022-09-09T00:36:17;5.00;;;1.87;;
20846;SDS011;10584;50.854;12.902;2022-09-09T00:57:25;2.40;;;1.70;;
20846;SDS011;10584;50.854;12.902;2022-09-09T01:02:47;2.77;;;1.60;;
20846;SDS011;10584;50.854;12.902;2022-09-09T01:08:05;3.73;;;2.00;;
20846;SDS011;10584;50.854;12.902;2022-09-09T01:13:34;4.70;;;1.80;;
20846;SDS011;10584;50.854;12.902;2022-09-09T01:18:49;3.80;;;1.80;;
20846;SDS011;10584;50.854;12.902;2022-09-09T01:29:26;3.67;;;2.00;;
20846;SDS011;10584;50.854;12.902;2022-09-09T01:34:31;2.53;;;1.80;;
20846;SDS011;10584;50.854;12.902;2022-09-09T01:39:42;9.17;;;1.93;;
20846;SDS011;10584;50.854;12.902;2022-09-09T01:44:50;3.53;;;2.13;;
20846;SDS011;10584;50.854;12.902;2022-09-09T01:49:52;2.67;;;1.80;;
20846;SDS011;10584;50.854;12.902;2022-09-09T01:54:59;5.30;;;1.87;;
20846;SDS011;10584;50.854;12.902;2022-09-09T02:00:12;4.07;;;2.10;;
20846;SDS011;10584;50.854;12.902;2022-09-09T02:05:21;4.60;;;2.03;;
20846;SDS011;10584;50.854;12.902;2022-09-09T02:11:13;3.27;;;1.90;;
20846;SDS011;10584;50.854;12.902;2022-09-09T02:16:40;5.57;;;2.07;;
20846;SDS011;10584;50.854;12.902;2022-09-09T02:22:27;5.00;;;2.13;;
20846;SDS011;10584;50.854;12.902;2022-09-09T02:27:36;4.67;;;1.97;;
20846;SDS011;10584;50.854;12.902;2022-09-09T02:32:40;4.50;;;1.77;;
20846;SDS011;10584;50.854;12.902;2022-09-09T02:37:48;5.60;;;2.30;;
20846;SDS011;10584;50.854;12.902;2022-09-09T02:42:54;5.43;;;2.07;;
20846;SDS011;10584;50.854;12.902;2022-09-09T02:59:12;3.43;;;2.03;;
20846;SDS011;10584;50.854;12.902;2022-09-09T03:04:15;4.10;;;1.80;;
20846;SDS011;10584;50.854;12.902;2022-09-09T03:09:18;5.70;;;1.80;;
20846;SDS011;10584;50.854;12.902;2022-09-09T03:14:23;5.90;;;1.60;;
20846;SDS011;10584;50.854;12.902;2022-09-09T03:19:27;4.63;;;1.80;;
20846;SDS011;10584;50.854;12.902;2022-09-09T03:24:31;2.80;;;1.87;;
20846;SDS011;10584;50.854;12.902;2022-09-09T03:29:37;2.67;;;1.90;;
20846;SDS011;10584;50.854;12.902;2022-09-09T03:34:43;4.70;;;2.10;;
20846;SDS011;10584;50.854;12.902;2022-09-09T03:39:52;3.97;;;2.00;;
20846;SDS011;10584;50.854;12.902;2022-09-09T03:44:57;2.60;;;1.80;;
20846;SDS011;10584;50.854;12.902;2022-09-09T03:50:01;4.47;;;2.00;;
20846;SDS011;10584;50.854;12.902;2022-09-09T03:55:06;5.73;;;1.77;;
20846;SDS011;10584;50.854;12.902;2022-09-09T04:00:11;7.27;;;2.27;;
20846;SDS011;10584;50.854;12.902;2022-09-09T04:05:18;4.37;;;2.20;;
20846;SDS011;10584;50.854;12.902;2022-09-09T04:10:23;2.90;;;1.87;;
20846;SDS011;10584;50.854;12.902;2022-09-09T04:15:28;5.40;;;2.20;;
20846;SDS011;10584;50.854;12.902;2022-09-09T04:20:32;4.17;;;2.00;;
20846;SDS011;10584;50.854;12.902;2022-09-09T04:25:36;4.57;;;1.90;;
20846;SDS011;10584;50.854;12.902;2022-09-09T04:30:40;5.20;;;2.00;;
20846;SDS011;10584;50.854;12.902;2022-09-09T04:35:44;4.80;;;1.80;;
20846;SDS011;10584;50.854;12.902;2022-09-09T04:40:51;4.53;;;1.87;;
20846;SDS011;10584;50.854;12.902;2022-09-09T04:45:55;5.10;;;1.63;;
20846;SDS011;10584;50.854;12.902;2022-09-09T04:51:02;4.27;;;2.00;;
20846;SDS011;10584;50.854;12.902;2022-09-09T04:56:11;3.23;;;2.00;;
20846;SDS011;10584;50.854;12.902;2022-09-09T05:01:22;6.07;;;1.87;;
20846;SDS011;10584;50.854;12.902;2022-09-09T05:06:28;6.47;;;2.00;;
20846;SDS011;10584;50.854;12.902;2022-09-09T05:11:34;6.67;;;2.07;;
20846;SDS011;10584;50.854;12.902;2022-09-09T05:17:13;4.17;;;2.17;;
20846;SDS011;10584;50.854;12.902;2022-09-09T05:22:19;4.70;;;2.13;;
20846;SDS011;10584;50.854;12.902;2022-09-09T05:27:23;4.20;;;1.90;;
20846;SDS011;10584;50.854;12.902;2022-09-09T05:32:27;4.57;;;1.93;;
20846;SDS011;10584;50.854;12.902;2022-09-09T05:37:35;4.40;;;2.10;;
20846;SDS011;10584;50.854;12.902;2022-09-09T05:42:38;5.07;;;1.73;;
20846;SDS011;10584;50.854;12.902;2022-09-09T05:47:43;10.63;;;2.30;;
20846;SDS011;10584;50.854;12.902;2022-09-09T05:52:48;4.03;;;2.30;;
20846;SDS011;10584;50.854;12.902;2022-09-09T05:57:51;7.47;;;2.07;;
20846;SDS011;10584;50.854;12.902;2022-09-09T06:02:54;27.67;;;2.73;;
20846;SDS011;10584;50.854;12.902;2022-09-09T06:07:59;8.27;;;2.83;;
20846;SDS011;10584;50.854;12.902;2022-09-09T06:13:02;5.77;;;2.43;;
20846;SDS011;10584;50.854;12.902;2022-09-09T06:18:05;3.43;;;2.07;;
20846;SDS011;10584;50.854;12.902;2022-09-09T06:23:09;5.67;;;2.20;;
20846;SDS011;10584;50.854;12.902;2022-09-09T06:28:12;6.93;;;2.07;;
20846;SDS011;10584;50.854;12.902;2022-09-09T06:33:15;6.83;;;2.00;;
20846;SDS011;10584;50.854;12.902;2022-09-09T06:38:18;5.20;;;1.67;;
20846;SDS011;10584;50.854;12.902;2022-09-09T06:43:22;4.50;;;1.90;;
20846;SDS011;10584;50.854;12.902;2022-09-09T06:48:26;11.97;;;2.33;;
20846;SDS011;10584;50.854;12.902;2022-09-09T06:53:33;5.07;;;1.90;;
20846;SDS011;10584;50.854;12.902;2022-09-09T06:58:39;2.40;;;1.60;;
20846;SDS011;10584;50.854;12.902;2022-09-09T07:03:55;9.70;;;2.00;;
20846;SDS011;10584;50.854;12.902;2022-09-09T07:09:05;5.13;;;1.63;;
20846;SDS011;10584;50.854;12.902;2022-09-09T07:14:11;7.93;;;2.00;;
20846;SDS011;10584;50.854;12.902;2022-09-09T07:19:19;5.33;;;2.10;;
20846;SDS011;10584;50.854;12.902;2022-09-09T07:24:25;6.10;;;1.80;;
20846;SDS011;10584;50.854;12.902;2022-09-09T07:29:32;4.10;;;1.90;;
20846;SDS011;10584;50.854;12.902;2022-09-09T07:34:36;5.00;;;1.60;;
20846;SDS011;10584;50.854;12.902;2022-09-09T07:39:40;4.50;;;1.80;;
20846;SDS011;10584;50.854;12.902;2022-09-09T07:44:43;3.17;;;1.80;;
20846;SDS011;10584;50.854;12.902;2022-09-09T07:49:49;4.70;;;1.77;;
20846;SDS011;10584;50.854;12.902;2022-09-09T07:54:58;5.00;;;1.63;;
20846;SDS011;10584;50.854;12.902;2022-09-09T08:00:05;3.53;;;1.80;;
20846;SDS011;10584;50.854;12.902;2022-09-09T08:05:17;4.07;;;2.10;;
20846;SDS011;10584;50.854;12.902;2022-09-09T08:10:22;12.23;;;2.10;;
20846;SDS011;10584;50.854;12.902;2022-09-09T08:15:27;10.57;;;2.37;;
20846;SDS011;10584;50.854;12.902;2022-09-09T08:20:32;8.10;;;2.00;;
20846;SDS011;10584;50.854;12.902;2022-09-09T08:25:37;4.03;;;2.20;;
20846;SDS011;10584;50.854;12.902;2022-09-09T08:30:40;5.97;;;2.63;;
20846;SDS011;10584;50.854;12.902;2022-09-09T08:35:50;7.73;;;2.57;;
20846;SDS011;10584;50.854;12.902;2022-09-09T08:40:57;9.93;;;2.53;;
20846;SDS011;10584;50.854;12.902;2022-09-09T08:46:27;5.23;;;2.37;;
20846;SDS011;10584;50.854;12.902;2022-09-09T08:51:46;5.77;;;2.40;;
20846;SDS011;10584;50.854;12.902;2022-09-09T08:56:51;8.23;;;2.43;;
20846;SDS011;10584;50.854;12.902;2022-09-09T09:12:57;7.50;;;2.13;;
20846;SDS011;10584;50.854;12.902;2022-09-09T09:18:04;6.23;;;1.70;;
20846;SDS011;10584;50.854;12.902;2022-09-09T09:23:22;3.87;;;1.77;;
20846;SDS011;10584;50.854;12.902;2022-09-09T09:28:31;5.93;;;1.90;;
20846;SDS011;10584;50.854;12.902;2022-09-09T09:33:45;7.93;;;2.07;;
20846;SDS011;10584;50.854;12.902;2022-09-09T09:44:23;5.50;;;2.20;;
20846;SDS011;10584;50.854;12.902;2022-09-09T09:49:38;3.97;;;2.00;;
20846;SDS011;10584;50.854;12.902;2022-09-09T09:54:54;5.73;;;1.90;;
20846;SDS011;10584;50.854;12.902;2022-09-09T10:00:18;3.90;;;2.00;;
20846;SDS011;10584;50.854;12.902;2022-09-09T10:05:32;5.87;;;1.90;;
20846;SDS011;10584;50.854;12.902;2022-09-09T10:59:37;3.60;;;1.07;;
20846;SDS011;10584;50.854;12.902;2022-09-09T11:04:53;2.97;;;1.00;;
20846;SDS011;10584;50.854;12.902;2022-09-09T11:10:01;3.67;;;1.03;;
20846;SDS011;10584;50.854;12.902;2022-09-09T11:15:14;5.03;;;1.20;;
20846;SDS011;10584;50.854;12.902;2022-09-09T11:20:22;2.07;;;0.90;;
20846;SDS011;10584;50.854;12.902;2022-09-09T11:25:35;1.47;;;0.90;;
20846;SDS011;10584;50.854;12.902;2022-09-09T11:41:12;3.07;;;1.30;;
20846;SDS011;10584;50.854;12.902;2022-09-09T11:46:22;1.90;;;1.17;;
20846;SDS011;10584;50.854;12.902;2022-09-09T11:51:37;2.37;;;1.30;;
20846;SDS011;10584;50.854;12.902;2022-09-09T11:56:43;2.30;;;1.10;;
20846;SDS011;10584;50.854;12.902;2022-09-09T12:07:21;3.57;;;1.37;;
20846;SDS011;10584;50.854;12.902;2022-09-09T12:12:32;2.63;;;1.40;;
20846;SDS011;10584;50.854;12.902;2022-09-09T12:17:45;3.17;;;1.30;;
20846;SDS011;10584;50.854;12.902;2022-09-09T12:28:18;4.37;;;1.20;;
20846;SDS011;10584;50.854;12.902;2022-09-09T12:33:24;4.10;;;1.20;;
20846;SDS011;10584;50.854;12.902;2022-09-09T12:38:37;2.80;;;1.17;;
20846;SDS011;10584;50.854;12.902;2022-09-09T12:43:41;1.33;;;0.70;;
20846;SDS011;10584;50.854;12.902;2022-09-09T12:48:44;4.03;;;0.80;;
20846;SDS011;10584;50.854;12.902;2022-09-09T12:53:48;4.00;;;0.77;;
20846;SDS011;10584;50.854;12.902;2022-09-09T12:58:52;4.53;;;0.90;;
20846;SDS011;10584;50.854;12.902;2022-09-09T13:03:57;1.97;;;0.77;;
20846;SDS011;10584;50.854;12.902;2022-09-09T13:09:00;2.77;;;0.70;;
20846;SDS011;10584;50.854;12.902;2022-09-09T13:14:04;2.83;;;1.00;;
20846;SDS011;10584;50.854;12.902;2022-09-09T13:19:09;2.17;;;0.60;;
20846;SDS011;10584;50.854;12.902;2022-09-09T13:24:25;2.35;;;0.70;;
20846;SDS011;10584;50.854;12.902;2022-09-09T13:29:32;5.20;;;0.90;;
20846;SDS011;10584;50.854;12.902;2022-09-09T13:34:36;1.77;;;0.80;;
20846;SDS011;10584;50.854;12.902;2022-09-09T13:39:39;3.72;;;1.05;;
20846;SDS011;10584;50.854;12.902;2022-09-09T13:44:54;3.78;;;1.00;;
20846;SDS011;10584;50.854;12.902;2022-09-09T13:55:23;3.27;;;1.00;;
20846;SDS011;10584;50.854;12.902;2022-09-09T14:00:30;3.87;;;0.70;;
20846;SDS011;10584;50.854;12.902;2022-09-09T14:05:34;3.07;;;0.80;;
20846;SDS011;10584;50.854;12.902;2022-09-09T14:10:37;3.40;;;0.90;;
20846;SDS011;10584;50.854;12.902;2022-09-09T14:15:40;3.58;;;1.00;;
20846;SDS011;10584;50.854;12.902;2022-09-09T14:20:43;2.58;;;1.00;;
20846;SDS011;10584;50.854;12.902;2022-09-09T14:25:46;2.07;;;0.90;;
20846;SDS011;10584;50.854;12.902;2022-09-09T14:30:50;2.47;;;1.40;;
20846;SDS011;10584;50.854;12.902;2022-09-09T14:35:57;4.00;;;1.20;;
20846;SDS011;10584;50.854;12.902;2022-09-09T14:41:01;2.40;;;1.30;;
20846;SDS011;10584;50.854;12.902;2022-09-09T14:46:05;0.77;;;0.70;;
20846;SDS011;10584;50.854;12.902;2022-09-09T14:51:13;2.53;;;0.80;;
20846;SDS011;10584;50.854;12.902;2022-09-09T14:56:19;0.67;;;0.60;;
20846;SDS011;10584;50.854;12.902;2022-09-09T15:01:24;3.90;;;0.70;;
20846;SDS011;10584;50.854;12.902;2022-09-09T15:06:32;2.83;;;0.90;;
20846;SDS011;10584;50.854;12.902;2022-09-09T15:11:37;1.10;;;0.70;;
20846;SDS011;10584;50.854;12.902;2022-09-09T15:16:40;2.07;;;0.80;;
20846;SDS011;10584;50.854;12.902;2022-09-09T15:21:43;1.03;;;0.70;;
20846;SDS011;10584;50.854;12.902;2022-09-09T15:26:46;0.83;;;0.70;;
20846;SDS011;10584;50.854;12.902;2022-09-09T15:31:49;1.27;;;0.87;;
20846;SDS011;10584;50.854;12.902;2022-09-09T15:36:52;1.67;;;1.00;;
20846;SDS011;10584;50.854;12.902;2022-09-09T15:41:57;3.57;;;0.70;;
20846;SDS011;10584;50.854;12.902;2022-09-09T15:46:59;10.30;;;1.10;;
20846;SDS011;10584;50.854;12.902;2022-09-09T15:52:02;2.73;;;0.80;;
20846;SDS011;10584;50.854;12.902;2022-09-09T15:57:07;1.13;;;0.90;;
20846;SDS011;10584;50.854;12.902;2022-09-09T16:02:13;2.03;;;1.00;;
20846;SDS011;10584;50.854;12.902;2022-09-09T16:07:16;2.17;;;1.00;;
20846;SDS011;10584;50.854;12.902;2022-09-09T16:12:19;2.30;;;1.00;;
20846;SDS011;10584;50.854;12.902;2022-09-09T16:17:22;3.73;;;1.27;;
20846;SDS011;10584;50.854;12.902;2022-09-09T16:22:25;2.33;;;1.07;;
20846;SDS011;10584;50.854;12.902;2022-09-09T16:27:29;4.47;;;1.07;;
20846;SDS011;10584;50.854;12.902;2022-09-09T16:32:32;1.77;;;0.90;;
20846;SDS011;10584;50.854;12.902;2022-09-09T16:37:36;1.77;;;1.20;;
20846;SDS011;10584;50.854;12.902;2022-09-09T16:42:39;2.10;;;1.10;;
20846;SDS011;10584;50.854;12.902;2022-09-09T16:47:42;1.50;;;1.13;;
20846;SDS011;10584;50.854;12.902;2022-09-09T16:52:46;1.73;;;0.93;;
20846;SDS011;10584;50.854;12.902;2022-09-09T16:57:49;2.57;;;1.23;;
20846;SDS011;10584;50.854;12.902;2022-09-09T17:02:52;1.53;;;0.90;;
20846;SDS011;10584;50.854;12.902;2022-09-09T17:07:55;3.23;;;1.10;;
20846;SDS011;10584;50.854;12.902;2022-09-09T17:12:59;1.60;;;1.13;;
20846;SDS011;10584;50.854;12.902;2022-09-09T17:18:03;1.13;;;0.90;;
20846;SDS011;10584;50.854;12.902;2022-09-09T17:23:06;1.90;;;1.00;;
20846;SDS011;10584;50.854;12.902;2022-09-09T17:28:10;1.80;;;0.93;;
20846;SDS011;10584;50.854;12.902;2022-09-09T17:33:13;3.40;;;1.10;;
20846;SDS011;10584;50.854;12.902;2022-09-09T17:38:17;1.97;;;1.20;;
20846;SDS011;10584;50.854;12.902;2022-09-09T17:43:20;2.27;;;1.00;;
20846;SDS011;10584;50.854;12.902;2022-09-09T17:48:23;1.67;;;1.10;;
20846;SDS011;10584;50.854;12.902;2022-09-09T17:53:27;3.00;;;1.07;;
20846;SDS011;10584;50.854;12.902;2022-09-09T17:58:30;3.00;;;1.10;;
20846;SDS011;10584;50.854;12.902;2022-09-09T18:03:34;2.80;;;1.27;;
20846;SDS011;10584;50.854;12.902;2022-09-09T18:08:39;1.43;;;1.00;;
20846;SDS011;10584;50.854;12.902;2022-09-09T18:13:42;1.60;;;1.03;;
20846;SDS011;10584;50.854;12.902;2022-09-09T18:18:49;2.60;;;1.27;;
20846;SDS011;10584;50.854;12.902;2022-09-09T18:23:53;4.93;;;1.10;;
20846;SDS011;10584;50.854;12.902;2022-09-09T18:28:57;3.73;;;1.50;;
20846;SDS011;10584;50.854;12.902;2022-09-09T18:34:02;28.93;;;2.40;;
20846;SDS011;10584;50.854;12.902;2022-09-09T18:39:07;1.53;;;1.10;;
20846;SDS011;10584;50.854;12.902;2022-09-09T18:44:15;2.87;;;1.27;;
20846;SDS011;10584;50.854;12.902;2022-09-09T18:49:27;3.10;;;1.10;;
20846;SDS011;10584;50.854;12.902;2022-09-09T18:54:30;6.67;;;1.30;;
20846;SDS011;10584;50.854;12.902;2022-09-09T18:59:36;3.27;;;1.10;;
20846;SDS011;10584;50.854;12.902;2022-09-09T19:04:39;4.20;;;1.10;;
20846;SDS011;10584;50.854;12.902;2022-09-09T19:09:41;1.60;;;1.10;;
20846;SDS011;10584;50.854;12.902;2022-09-09T19:14:45;1.97;;;1.20;;
20846;SDS011;10584;50.854;12.902;2022-09-09T19:19:48;2.20;;;1.30;;
20846;SDS011;10584;50.854;12.902;2022-09-09T19:24:52;47.27;;;3.70;;
20846;SDS011;10584;50.854;12.902;2022-09-09T19:29:56;2.87;;;1.33;;
20846;SDS011;10584;50.854;12.902;2022-09-09T19:34:59;1.80;;;1.30;;
20846;SDS011;10584;50.854;12.902;2022-09-09T19:40:03;5.80;;;1.43;;
20846;SDS011;10584;50.854;12.902;2022-09-09T19:45:08;2.30;;;1.63;;
20846;SDS011;10584;50.854;12.902;2022-09-09T19:50:11;2.57;;;1.70;;
20846;SDS011;10584;50.854;12.902;2022-09-09T19:55:14;3.93;;;1.70;;
20846;SDS011;10584;50.854;12.902;2022-09-09T20:00:17;2.37;;;1.60;;
20846;SDS011;10584;50.854;12.902;2022-09-09T20:05:20;5.03;;;1.77;;
20846;SDS011;10584;50.854;12.902;2022-09-09T20:10:24;3.57;;;1.50;;
20846;SDS011;10584;50.854;12.902;2022-09-09T20:15:27;4.30;;;1.80;;
20846;SDS011;10584;50.854;12.902;2022-09-09T20:20:30;2.87;;;1.70;;
20846;SDS011;10584;50.854;12.902;2022-09-09T20:25:37;7.27;;;1.73;;
20846;SDS011;10584;50.854;12.902;2022-09-09T20:30:40;3.00;;;1.73;;
20846;SDS011;10584;50.854;12.902;2022-09-09T20:35:43;2.63;;;1.60;;
20846;SDS011;10584;50.854;12.902;2022-09-09T20:40:46;4.03;;;1.50;;
20846;SDS011;10584;50.854;12.902;2022-09-09T20:45:49;3.00;;;1.73;;
20846;SDS011;10584;50.854;12.902;2022-09-09T20:50:54;2.40;;;1.60;;
20846;SDS011;10584;50.854;12.902;2022-09-09T20:55:58;2.93;;;1.47;;
20846;SDS011;10584;50.854;12.902;2022-09-09T21:01:03;17.37;;;1.60;;
20846;SDS011;10584;50.854;12.902;2022-09-09T21:06:06;5.10;;;1.60;;
20846;SDS011;10584;50.854;12.902;2022-09-09T21:11:09;2.80;;;1.73;;
20846;SDS011;10584;50.854;12.902;2022-09-09T21:16:16;6.13;;;1.90;;
20846;SDS011;10584;50.854;12.902;2022-09-09T21:21:20;2.03;;;1.40;;
20846;SDS011;10584;50.854;12.902;2022-09-09T21:26:23;3.10;;;1.40;;
20846;SDS011;10584;50.854;12.902;2022-09-09T21:31:27;4.67;;;1.40;;
20846;SDS011;10584;50.854;12.902;2022-09-09T21:36:30;2.37;;;1.33;;
20846;SDS011;10584;50.854;12.902;2022-09-09T21:41:34;3.17;;;1.60;;
20846;SDS011;10584;50.854;12.902;2022-09-09T21:46:37;6.07;;;1.53;;
20846;SDS011;10584;50.854;12.902;2022-09-09T21:51:42;2.13;;;1.30;;
20846;SDS011;10584;50.854;12.902;2022-09-09T21:56:48;4.27;;;1.30;;
20846;SDS011;10584;50.854;12.902;2022-09-09T22:01:52;4.20;;;2.00;;
20846;SDS011;10584;50.854;12.902;2022-09-09T22:06:55;2.30;;;1.63;;
20846;SDS011;10584;50.854;12.902;2022-09-09T22:11:58;2.70;;;1.70;;
20846;SDS011;10584;50.854;12.902;2022-09-09T22:17:02;2.10;;;1.70;;
20846;SDS011;10584;50.854;12.902;2022-09-09T22:22:05;4.10;;;1.90;;
20846;SDS011;10584;50.854;12.902;2022-09-09T22:27:08;4.47;;;1.90;;
20846;SDS011;10584;50.854;12.902;2022-09-09T22:32:12;3.83;;;1.50;;
20846;SDS011;10584;50.854;12.902;2022-09-09T22:37:16;3.13;;;1.50;;
20846;SDS011;10584;50.854;12.902;2022-09-09T22:42:19;2.93;;;1.30;;
20846;SDS011;10584;50.854;12.902;2022-09-09T22:47:23;2.30;;;1.30;;
20846;SDS011;10584;50.854;12.902;2022-09-09T22:52:27;3.70;;;1.20;;
20846;SDS011;10584;50.854;12.902;2022-09-09T22:57:32;1.97;;;1.20;;
20846;SDS011;10584;50.854;12.902;2022-09-09T23:02:35;3.57;;;1.47;;
20846;SDS011;10584;50.854;12.902;2022-09-09T23:07:41;2.20;;;1.43;;
20846;SDS011;10584;50.854;12.902;2022-09-09T23:12:44;2.17;;;1.20;;
20846;SDS011;10584;50.854;12.902;2022-09-09T23:17:47;6.10;;;1.50;;
20846;SDS011;10584;50.854;12.902;2022-09-09T23:22:52;2.83;;;1.27;;
20846;SDS011;10584;50.854;12.902;2022-09-09T23:27:57;3.57;;;1.40;;
20846;SDS011;10584;50.854;12.902;2022-09-09T23:33:00;2.13;;;1.30;;
20846;SDS011;10584;50.854;12.902;2022-09-09T23:38:03;2.67;;;1.40;;
20846;SDS011;10584;50.854;12.902;2022-09-09T23:43:06;2.03;;;1.33;;
20846;SDS011;10584;50.854;12.902;2022-09-09T23:48:09;2.30;;;1.30;;
20846;SDS011;10584;50.854;12.902;2022-09-09T23:53:13;2.67;;;1.40;;
20846;SDS011;10584;50.854;12.902;2022-09-09T23:58:16;2.63;;;1.20;;
